sensor_id;sensor_type;location;lat;lon;timestamp;pressure;altitude;pressure_sealevel;temperature;humidity
48364;BME280;34170;54.364;18.582;2023-07-22T00:00:01;99765.44;;;15.77;100.00
48364;BME280;34170;54.364;18.582;2023-07-22T00:02:30;99758.56;;;15.30;100.00
48364;BME280;34170;54.364;18.582;2023-07-22T00:04:58;99759.31;;;15.09;100.00
48364;BME280;34170;54.364;18.582;2023-07-22T00:07:26;99764.69;;;15.02;100.00
48364;BME280;34170;54.364;18.582;2023-07-22T00:09:53;99759.25;;;15.02;100.00
48364;BME280;34170;54.364;18.582;2023-07-22T00:12:21;99747.13;;;14.68;100.00
48364;BME280;34170;54.364;18.582;2023-07-22T00:14:52;99753.47;;;14.76;100.00
48364;BME280;34170;54.364;18.582;2023-07-22T00:17:22;99753.72;;;15.11;100.00
48364;BME280;34170;54.364;18.582;2023-07-22T00:19:52;99750.22;;;14.95;100.00
48364;BME280;34170;54.364;18.582;2023-07-22T00:22:21;99749.81;;;14.98;100.00
48364;BME280;34170;54.364;18.582;2023-07-22T00:24:49;99734.88;;;14.73;100.00
48364;BME280;34170;54.364;18.582;2023-07-22T00:27:16;99735.88;;;14.72;100.00
48364;BME280;34170;54.364;18.582;2023-07-22T00:29:44;99737.88;;;14.78;100.00
48364;BME280;34170;54.364;18.582;2023-07-22T00:32:11;99740.28;;;14.73;100.00
48364;BME280;34170;54.364;18.582;2023-07-22T00:34:39;99740.88;;;14.83;100.00
48364;BME280;34170;54.364;18.582;2023-07-22T00:37:06;99728.34;;;14.82;100.00
48364;BME280;34170;54.364;18.582;2023-07-22T00:39:33;99736.28;;;14.83;100.00
48364;BME280;34170;54.364;18.582;2023-07-22T00:42:01;99724.69;;;14.75;100.00
48364;BME280;34170;54.364;18.582;2023-07-22T00:44:28;99730.50;;;14.86;100.00
48364;BME280;34170;54.364;18.582;2023-07-22T00:46:57;99739.91;;;15.05;100.00
48364;BME280;34170;54.364;18.582;2023-07-22T00:49:25;99728.91;;;14.77;100.00
48364;BME280;34170;54.364;18.582;2023-07-22T00:51:53;99726.09;;;14.85;100.00
48364;BME280;34170;54.364;18.582;2023-07-22T00:54:20;99720.69;;;14.71;100.00
48364;BME280;34170;54.364;18.582;2023-07-22T00:56:48;99725.53;;;14.75;100.00
48364;BME280;34170;54.364;18.582;2023-07-22T00:59:16;99719.97;;;14.92;100.00
48364;BME280;34170;54.364;18.582;2023-07-22T01:01:43;99716.47;;;14.68;100.00
48364;BME280;34170;54.364;18.582;2023-07-22T01:04:14;99706.94;;;14.57;100.00
48364;BME280;34170;54.364;18.582;2023-07-22T01:06:43;99712.66;;;14.62;100.00
48364;BME280;34170;54.364;18.582;2023-07-22T01:09:11;99701.91;;;14.54;100.00
48364;BME280;34170;54.364;18.582;2023-07-22T01:11:39;99704.22;;;14.57;100.00
48364;BME280;34170;54.364;18.582;2023-07-22T01:14:06;99695.91;;;14.29;100.00
48364;BME280;34170;54.364;18.582;2023-07-22T01:16:35;99700.53;;;14.58;100.00
48364;BME280;34170;54.364;18.582;2023-07-22T01:19:04;99686.97;;;14.43;100.00
48364;BME280;34170;54.364;18.582;2023-07-22T01:21:32;99686.16;;;14.73;100.00
48364;BME280;34170;54.364;18.582;2023-07-22T01:24:01;99682.69;;;14.49;100.00
48364;BME280;34170;54.364;18.582;2023-07-22T01:26:29;99683.38;;;14.81;100.00
48364;BME280;34170;54.364;18.582;2023-07-22T01:29:04;99670.84;;;14.80;100.00
48364;BME280;34170;54.364;18.582;2023-07-22T01:31:37;99675.22;;;14.51;100.00
48364;BME280;34170;54.364;18.582;2023-07-22T01:34:05;99667.16;;;14.28;100.00
48364;BME280;34170;54.364;18.582;2023-07-22T01:36:33;99665.72;;;14.70;100.00
48364;BME280;34170;54.364;18.582;2023-07-22T01:39:00;99668.91;;;14.74;100.00
48364;BME280;34170;54.364;18.582;2023-07-22T01:41:28;99668.06;;;14.58;100.00
48364;BME280;34170;54.364;18.582;2023-07-22T01:43:55;99662.53;;;14.52;100.00
48364;BME280;34170;54.364;18.582;2023-07-22T01:46:23;99662.81;;;14.72;100.00
48364;BME280;34170;54.364;18.582;2023-07-22T01:48:51;99651.72;;;14.81;100.00
48364;BME280;34170;54.364;18.582;2023-07-22T01:51:18;99651.94;;;14.65;100.00
48364;BME280;34170;54.364;18.582;2023-07-22T01:53:46;99646.94;;;14.39;100.00
48364;BME280;34170;54.364;18.582;2023-07-22T01:56:13;99653.22;;;14.54;100.00
48364;BME280;34170;54.364;18.582;2023-07-22T01:58:41;99659.44;;;14.40;100.00
48364;BME280;34170;54.364;18.582;2023-07-22T02:01:08;99658.66;;;14.16;100.00
48364;BME280;34170;54.364;18.582;2023-07-22T02:03:36;99652.91;;;14.49;100.00
48364;BME280;34170;54.364;18.582;2023-07-22T02:06:04;99650.28;;;14.56;100.00
48364;BME280;34170;54.364;18.582;2023-07-22T02:08:32;99651.50;;;14.53;100.00
48364;BME280;34170;54.364;18.582;2023-07-22T02:11:05;99649.94;;;14.44;100.00
48364;BME280;34170;54.364;18.582;2023-07-22T02:13:35;99643.53;;;14.60;100.00
48364;BME280;34170;54.364;18.582;2023-07-22T02:16:03;99650.69;;;14.67;100.00
48364;BME280;34170;54.364;18.582;2023-07-22T02:18:30;99654.22;;;14.53;100.00
48364;BME280;34170;54.364;18.582;2023-07-22T02:20:58;99647.50;;;14.49;100.00
48364;BME280;34170;54.364;18.582;2023-07-22T02:23:25;99650.69;;;14.67;100.00
48364;BME280;34170;54.364;18.582;2023-07-22T02:25:54;99644.28;;;14.68;100.00
48364;BME280;34170;54.364;18.582;2023-07-22T02:28:22;99651.53;;;14.83;100.00
48364;BME280;34170;54.364;18.582;2023-07-22T02:30:52;99652.06;;;14.93;100.00
48364;BME280;34170;54.364;18.582;2023-07-22T02:33:21;99648.84;;;14.83;100.00
48364;BME280;34170;54.364;18.582;2023-07-22T02:35:52;99631.47;;;14.62;100.00
48364;BME280;34170;54.364;18.582;2023-07-22T02:38:19;99639.41;;;14.49;100.00
48364;BME280;34170;54.364;18.582;2023-07-22T02:40:47;99632.28;;;14.48;100.00
48364;BME280;34170;54.364;18.582;2023-07-22T02:43:14;99639.03;;;14.67;100.00
48364;BME280;34170;54.364;18.582;2023-07-22T02:45:42;99644.06;;;14.85;100.00
48364;BME280;34170;54.364;18.582;2023-07-22T02:48:11;99635.84;;;14.78;100.00
48364;BME280;34170;54.364;18.582;2023-07-22T02:50:39;99639.59;;;14.77;100.00
48364;BME280;34170;54.364;18.582;2023-07-22T02:53:08;99636.81;;;14.71;100.00
48364;BME280;34170;54.364;18.582;2023-07-22T02:55:35;99631.22;;;14.72;100.00
48364;BME280;34170;54.364;18.582;2023-07-22T02:58:03;99645.53;;;14.87;100.00
48364;BME280;34170;54.364;18.582;2023-07-22T03:00:32;99647.13;;;14.97;100.00
48364;BME280;34170;54.364;18.582;2023-07-22T03:03:00;99647.97;;;14.97;100.00
48364;BME280;34170;54.364;18.582;2023-07-22T03:05:30;99644.13;;;15.06;100.00
48364;BME280;34170;54.364;18.582;2023-07-22T03:07:58;99633.66;;;15.03;100.00
48364;BME280;34170;54.364;18.582;2023-07-22T03:10:26;99634.56;;;15.11;100.00
48364;BME280;34170;54.364;18.582;2023-07-22T03:12:55;99631.44;;;15.29;100.00
48364;BME280;34170;54.364;18.582;2023-07-22T03:15:23;99637.97;;;15.34;100.00
48364;BME280;34170;54.364;18.582;2023-07-22T03:17:54;99619.91;;;15.41;100.00
48364;BME280;34170;54.364;18.582;2023-07-22T03:20:23;99632.06;;;15.46;100.00
48364;BME280;34170;54.364;18.582;2023-07-22T03:22:52;99636.38;;;15.61;100.00
48364;BME280;34170;54.364;18.582;2023-07-22T03:25:20;99641.72;;;15.55;100.00
48364;BME280;34170;54.364;18.582;2023-07-22T03:27:47;99641.91;;;15.53;100.00
48364;BME280;34170;54.364;18.582;2023-07-22T03:30:17;99639.72;;;15.63;100.00
48364;BME280;34170;54.364;18.582;2023-07-22T03:32:47;99631.75;;;15.77;100.00
48364;BME280;34170;54.364;18.582;2023-07-22T03:35:15;99642.22;;;16.08;100.00
48364;BME280;34170;54.364;18.582;2023-07-22T03:37:44;99638.91;;;16.41;100.00
48364;BME280;34170;54.364;18.582;2023-07-22T03:40:11;99630.41;;;16.51;100.00
48364;BME280;34170;54.364;18.582;2023-07-22T03:42:50;99642.94;;;16.93;100.00
48364;BME280;34170;54.364;18.582;2023-07-22T03:45:19;99641.81;;;16.81;100.00
48364;BME280;34170;54.364;18.582;2023-07-22T03:47:52;99632.94;;;16.59;100.00
48364;BME280;34170;54.364;18.582;2023-07-22T03:50:20;99643.44;;;16.34;100.00
48364;BME280;34170;54.364;18.582;2023-07-22T03:52:48;99634.88;;;16.30;100.00
48364;BME280;34170;54.364;18.582;2023-07-22T03:55:15;99637.44;;;16.38;100.00
48364;BME280;34170;54.364;18.582;2023-07-22T03:57:43;99631.50;;;16.56;100.00
48364;BME280;34170;54.364;18.582;2023-07-22T04:00:10;99636.28;;;16.61;100.00
48364;BME280;34170;54.364;18.582;2023-07-22T04:02:41;99641.91;;;16.59;100.00
48364;BME280;34170;54.364;18.582;2023-07-22T04:05:10;99640.47;;;16.99;100.00
48364;BME280;34170;54.364;18.582;2023-07-22T04:07:38;99631.00;;;17.43;100.00
48364;BME280;34170;54.364;18.582;2023-07-22T04:10:06;99629.34;;;17.55;100.00
48364;BME280;34170;54.364;18.582;2023-07-22T04:12:34;99627.88;;;17.59;99.15
48364;BME280;34170;54.364;18.582;2023-07-22T04:15:01;99635.44;;;17.84;98.74
48364;BME280;34170;54.364;18.582;2023-07-22T04:17:31;99635.91;;;17.94;96.23
48364;BME280;34170;54.364;18.582;2023-07-22T04:19:59;99618.28;;;17.83;97.40
48364;BME280;34170;54.364;18.582;2023-07-22T04:22:27;99631.09;;;18.03;97.95
48364;BME280;34170;54.364;18.582;2023-07-22T04:24:54;99624.34;;;18.39;95.00
48364;BME280;34170;54.364;18.582;2023-07-22T04:27:22;99628.25;;;18.63;93.49
48364;BME280;34170;54.364;18.582;2023-07-22T04:29:49;99637.19;;;19.67;87.73
48364;BME280;34170;54.364;18.582;2023-07-22T04:32:17;99631.66;;;19.49;89.22
48364;BME280;34170;54.364;18.582;2023-07-22T04:34:44;99640.75;;;19.36;90.68
48364;BME280;34170;54.364;18.582;2023-07-22T04:37:12;99638.69;;;19.31;90.31
48364;BME280;34170;54.364;18.582;2023-07-22T04:39:39;99645.50;;;19.47;89.20
48364;BME280;34170;54.364;18.582;2023-07-22T04:42:07;99636.34;;;19.35;88.88
48364;BME280;34170;54.364;18.582;2023-07-22T04:44:34;99631.22;;;19.13;89.67
48364;BME280;34170;54.364;18.582;2023-07-22T04:47:02;99636.47;;;19.08;91.37
48364;BME280;34170;54.364;18.582;2023-07-22T04:49:30;99636.38;;;18.90;92.68
48364;BME280;34170;54.364;18.582;2023-07-22T04:51:57;99641.03;;;18.69;92.97
48364;BME280;34170;54.364;18.582;2023-07-22T04:54:25;99642.44;;;18.92;91.68
48364;BME280;34170;54.364;18.582;2023-07-22T04:56:55;99636.47;;;19.08;92.66
48364;BME280;34170;54.364;18.582;2023-07-22T04:59:22;99645.16;;;18.85;91.65
48364;BME280;34170;54.364;18.582;2023-07-22T05:01:50;99649.78;;;18.78;93.76
48364;BME280;34170;54.364;18.582;2023-07-22T05:04:19;99636.59;;;18.81;92.38
48364;BME280;34170;54.364;18.582;2023-07-22T05:06:46;99646.38;;;19.02;93.50
48364;BME280;34170;54.364;18.582;2023-07-22T05:09:14;99630.22;;;19.08;92.23
48364;BME280;34170;54.364;18.582;2023-07-22T05:11:41;99623.72;;;19.09;92.39
48364;BME280;34170;54.364;18.582;2023-07-22T05:14:09;99638.81;;;19.04;92.70
48364;BME280;34170;54.364;18.582;2023-07-22T05:16:36;99645.97;;;18.99;93.46
48364;BME280;34170;54.364;18.582;2023-07-22T05:19:04;99647.03;;;18.78;94.91
48364;BME280;34170;54.364;18.582;2023-07-22T05:21:32;99639.34;;;18.68;95.51
48364;BME280;34170;54.364;18.582;2023-07-22T05:24:00;99645.00;;;18.60;95.35
48364;BME280;34170;54.364;18.582;2023-07-22T05:26:27;99642.53;;;18.52;97.26
48364;BME280;34170;54.364;18.582;2023-07-22T05:28:55;99648.00;;;18.25;100.00
48364;BME280;34170;54.364;18.582;2023-07-22T05:31:23;99644.22;;;18.26;100.00
48364;BME280;34170;54.364;18.582;2023-07-22T05:33:50;99641.72;;;18.38;99.71
48364;BME280;34170;54.364;18.582;2023-07-22T05:36:18;99633.28;;;18.66;97.63
48364;BME280;34170;54.364;18.582;2023-07-22T05:38:45;99629.63;;;18.99;95.42
48364;BME280;34170;54.364;18.582;2023-07-22T05:41:13;99633.91;;;19.27;93.31
48364;BME280;34170;54.364;18.582;2023-07-22T05:43:40;99635.38;;;19.22;92.28
48364;BME280;34170;54.364;18.582;2023-07-22T05:46:08;99629.06;;;19.60;92.45
48364;BME280;34170;54.364;18.582;2023-07-22T05:48:35;99626.06;;;19.37;92.00
48364;BME280;34170;54.364;18.582;2023-07-22T05:51:03;99643.25;;;19.76;90.12
48364;BME280;34170;54.364;18.582;2023-07-22T05:53:32;99624.59;;;19.41;93.14
48364;BME280;34170;54.364;18.582;2023-07-22T05:56:01;99632.63;;;19.61;90.97
48364;BME280;34170;54.364;18.582;2023-07-22T05:58:28;99632.38;;;19.69;90.50
48364;BME280;34170;54.364;18.582;2023-07-22T06:00:56;99632.06;;;19.52;90.82
48364;BME280;34170;54.364;18.582;2023-07-22T06:03:23;99625.03;;;19.31;93.16
48364;BME280;34170;54.364;18.582;2023-07-22T06:05:51;99634.22;;;19.05;95.44
48364;BME280;34170;54.364;18.582;2023-07-22T06:08:19;99624.13;;;19.12;95.10
48364;BME280;34170;54.364;18.582;2023-07-22T06:10:46;99633.34;;;19.04;95.20
48364;BME280;34170;54.364;18.582;2023-07-22T06:13:14;99634.88;;;18.94;96.88
48364;BME280;34170;54.364;18.582;2023-07-22T06:15:42;99629.41;;;19.00;95.73
48364;BME280;34170;54.364;18.582;2023-07-22T06:18:09;99633.09;;;19.19;96.57
48364;BME280;34170;54.364;18.582;2023-07-22T06:20:37;99628.25;;;19.21;95.35
48364;BME280;34170;54.364;18.582;2023-07-22T06:23:05;99629.94;;;19.54;94.02
48364;BME280;34170;54.364;18.582;2023-07-22T06:25:33;99624.09;;;20.08;90.31
48364;BME280;34170;54.364;18.582;2023-07-22T06:28:01;99642.09;;;20.59;87.32
48364;BME280;34170;54.364;18.582;2023-07-22T06:30:28;99637.28;;;20.54;86.28
48364;BME280;34170;54.364;18.582;2023-07-22T06:32:56;99644.16;;;19.95;89.99
48364;BME280;34170;54.364;18.582;2023-07-22T06:35:23;99638.09;;;19.93;88.78
48364;BME280;34170;54.364;18.582;2023-07-22T06:37:51;99630.84;;;19.48;92.74
48364;BME280;34170;54.364;18.582;2023-07-22T06:40:18;99639.88;;;19.42;92.44
48364;BME280;34170;54.364;18.582;2023-07-22T06:42:46;99632.00;;;19.27;93.02
48364;BME280;34170;54.364;18.582;2023-07-22T06:45:13;99639.78;;;19.23;94.32
48364;BME280;34170;54.364;18.582;2023-07-22T06:47:41;99628.38;;;18.95;94.87
48364;BME280;34170;54.364;18.582;2023-07-22T06:50:09;99637.78;;;18.99;95.09
48364;BME280;34170;54.364;18.582;2023-07-22T06:52:36;99638.66;;;18.93;95.64
48364;BME280;34170;54.364;18.582;2023-07-22T06:55:04;99641.81;;;18.90;95.39
48364;BME280;34170;54.364;18.582;2023-07-22T06:57:33;99642.69;;;18.83;95.66
48364;BME280;34170;54.364;18.582;2023-07-22T07:00:01;99634.03;;;19.00;96.06
48364;BME280;34170;54.364;18.582;2023-07-22T07:02:29;99637.16;;;19.03;95.48
48364;BME280;34170;54.364;18.582;2023-07-22T07:04:57;99638.06;;;19.29;94.80
48364;BME280;34170;54.364;18.582;2023-07-22T07:07:24;99642.50;;;19.62;93.80
48364;BME280;34170;54.364;18.582;2023-07-22T07:09:52;99637.09;;;20.12;91.27
48364;BME280;34170;54.364;18.582;2023-07-22T07:12:20;99638.47;;;20.22;87.85
48364;BME280;34170;54.364;18.582;2023-07-22T07:14:50;99643.56;;;20.36;87.08
48364;BME280;34170;54.364;18.582;2023-07-22T07:17:18;99645.81;;;20.46;88.50
48364;BME280;34170;54.364;18.582;2023-07-22T07:19:45;99636.47;;;21.09;82.89
48364;BME280;34170;54.364;18.582;2023-07-22T07:22:12;99645.38;;;21.35;80.41
48364;BME280;34170;54.364;18.582;2023-07-22T07:24:40;99649.53;;;21.56;78.98
48364;BME280;34170;54.364;18.582;2023-07-22T07:27:07;99659.53;;;22.04;74.47
48364;BME280;34170;54.364;18.582;2023-07-22T07:29:35;99660.84;;;22.73;69.08
48364;BME280;34170;54.364;18.582;2023-07-22T07:32:19;99667.06;;;23.32;69.01
48364;BME280;34170;54.364;18.582;2023-07-22T07:34:47;99658.47;;;23.86;63.89
48364;BME280;34170;54.364;18.582;2023-07-22T07:37:15;99662.47;;;24.12;62.37
48364;BME280;34170;54.364;18.582;2023-07-22T07:39:42;99659.31;;;24.21;61.96
48364;BME280;34170;54.364;18.582;2023-07-22T07:42:10;99665.19;;;26.01;56.00
48364;BME280;34170;54.364;18.582;2023-07-22T07:44:37;99662.44;;;26.38;52.51
48364;BME280;34170;54.364;18.582;2023-07-22T07:47:05;99662.47;;;26.91;49.41
48364;BME280;34170;54.364;18.582;2023-07-22T07:49:33;99664.28;;;27.23;49.27
48364;BME280;34170;54.364;18.582;2023-07-22T07:52:00;99681.63;;;28.28;47.20
48364;BME280;34170;54.364;18.582;2023-07-22T07:54:28;99678.09;;;26.70;48.68
48364;BME280;34170;54.364;18.582;2023-07-22T07:56:59;99669.56;;;26.34;50.11
48364;BME280;34170;54.364;18.582;2023-07-22T07:59:27;99671.59;;;25.30;49.90
48364;BME280;34170;54.364;18.582;2023-07-22T08:01:54;99672.00;;;25.00;51.85
48364;BME280;34170;54.364;18.582;2023-07-22T08:04:22;99668.25;;;25.06;52.59
48364;BME280;34170;54.364;18.582;2023-07-22T08:06:51;99667.63;;;24.60;53.10
48364;BME280;34170;54.364;18.582;2023-07-22T08:09:19;99670.28;;;24.38;54.92
48364;BME280;34170;54.364;18.582;2023-07-22T08:11:47;99674.38;;;24.35;56.09
48364;BME280;34170;54.364;18.582;2023-07-22T08:14:15;99661.16;;;23.52;56.00
48364;BME280;34170;54.364;18.582;2023-07-22T08:16:42;99661.28;;;23.17;58.67
48364;BME280;34170;54.364;18.582;2023-07-22T08:19:10;99681.78;;;23.02;61.50
48364;BME280;34170;54.364;18.582;2023-07-22T08:21:37;99674.19;;;23.05;62.66
48364;BME280;34170;54.364;18.582;2023-07-22T08:24:05;99665.50;;;23.36;61.99
48364;BME280;34170;54.364;18.582;2023-07-22T08:26:33;99673.41;;;23.50;62.30
48364;BME280;34170;54.364;18.582;2023-07-22T08:29:00;99674.19;;;23.45;59.82
48364;BME280;34170;54.364;18.582;2023-07-22T08:31:28;99669.84;;;23.49;61.94
48364;BME280;34170;54.364;18.582;2023-07-22T08:33:56;99668.03;;;24.51;57.63
48364;BME280;34170;54.364;18.582;2023-07-22T08:36:23;99678.88;;;24.97;55.25
48364;BME280;34170;54.364;18.582;2023-07-22T08:38:52;99674.69;;;24.95;54.00
48364;BME280;34170;54.364;18.582;2023-07-22T08:41:20;99686.84;;;24.43;56.63
48364;BME280;34170;54.364;18.582;2023-07-22T08:43:50;99678.13;;;23.95;59.11
48364;BME280;34170;54.364;18.582;2023-07-22T08:46:19;99682.94;;;23.88;59.52
48364;BME280;34170;54.364;18.582;2023-07-22T08:48:49;99670.19;;;23.24;60.35
48364;BME280;34170;54.364;18.582;2023-07-22T08:51:21;99670.41;;;22.35;62.54
48364;BME280;34170;54.364;18.582;2023-07-22T08:53:51;99679.72;;;22.57;63.35
48364;BME280;34170;54.364;18.582;2023-07-22T08:56:37;99676.56;;;22.18;65.46
48364;BME280;34170;54.364;18.582;2023-07-22T08:59:05;99671.66;;;22.08;64.57
48364;BME280;34170;54.364;18.582;2023-07-22T09:01:34;99676.34;;;22.20;66.06
48364;BME280;34170;54.364;18.582;2023-07-22T09:04:02;99670.66;;;23.21;62.35
48364;BME280;34170;54.364;18.582;2023-07-22T09:06:30;99674.78;;;24.27;57.90
48364;BME280;34170;54.364;18.582;2023-07-22T09:08:58;99682.69;;;26.59;49.32
48364;BME280;34170;54.364;18.582;2023-07-22T09:11:26;99671.16;;;27.20;46.39
48364;BME280;34170;54.364;18.582;2023-07-22T09:13:55;99674.63;;;27.58;43.67
48364;BME280;34170;54.364;18.582;2023-07-22T09:16:23;99679.22;;;27.27;43.21
48364;BME280;34170;54.364;18.582;2023-07-22T09:18:57;99676.22;;;26.38;45.77
48364;BME280;34170;54.364;18.582;2023-07-22T09:21:25;99680.09;;;27.43;43.25
48364;BME280;34170;54.364;18.582;2023-07-22T09:23:52;99679.28;;;28.97;40.63
48364;BME280;34170;54.364;18.582;2023-07-22T09:26:20;99675.78;;;28.50;40.09
48364;BME280;34170;54.364;18.582;2023-07-22T09:31:24;99681.25;;;28.86;39.24
48364;BME280;34170;54.364;18.582;2023-07-22T09:33:52;99682.91;;;28.87;40.04
48364;BME280;34170;54.364;18.582;2023-07-22T09:36:22;99682.81;;;29.23;38.03
48364;BME280;34170;54.364;18.582;2023-07-22T09:39:03;99690.56;;;30.74;35.20
48364;BME280;34170;54.364;18.582;2023-07-22T09:41:31;99688.88;;;31.50;35.40
48364;BME280;34170;54.364;18.582;2023-07-22T09:44:03;99682.78;;;31.67;34.41
48364;BME280;34170;54.364;18.582;2023-07-22T09:46:32;99686.38;;;31.49;34.28
48364;BME280;34170;54.364;18.582;2023-07-22T09:49:04;99695.78;;;31.72;34.16
48364;BME280;34170;54.364;18.582;2023-07-22T09:51:34;99691.47;;;32.51;31.68
48364;BME280;34170;54.364;18.582;2023-07-22T09:54:26;99702.66;;;33.48;29.60
48364;BME280;34170;54.364;18.582;2023-07-22T09:56:56;99716.50;;;34.26;27.96
48364;BME280;34170;54.364;18.582;2023-07-22T09:59:25;99709.59;;;33.87;28.71
48364;BME280;34170;54.364;18.582;2023-07-22T10:01:56;99720.91;;;34.04;28.31
48364;BME280;34170;54.364;18.582;2023-07-22T10:04:28;99697.22;;;32.73;29.02
48364;BME280;34170;54.364;18.582;2023-07-22T10:06:58;99708.34;;;31.45;31.01
48364;BME280;34170;54.364;18.582;2023-07-22T10:09:28;99726.50;;;30.26;32.32
48364;BME280;34170;54.364;18.582;2023-07-22T10:11:56;99721.38;;;29.64;33.82
48364;BME280;34170;54.364;18.582;2023-07-22T10:14:24;99716.97;;;28.77;35.68
48364;BME280;34170;54.364;18.582;2023-07-22T10:16:52;99723.91;;;28.33;36.40
48364;BME280;34170;54.364;18.582;2023-07-22T10:19:21;99705.09;;;28.30;36.76
48364;BME280;34170;54.364;18.582;2023-07-22T10:21:50;99711.72;;;28.34;36.55
48364;BME280;34170;54.364;18.582;2023-07-22T10:24:19;99720.19;;;27.66;37.49
48364;BME280;34170;54.364;18.582;2023-07-22T10:26:48;99723.28;;;25.99;39.71
48364;BME280;34170;54.364;18.582;2023-07-22T10:29:19;99724.56;;;24.13;42.99
48364;BME280;34170;54.364;18.582;2023-07-22T10:31:47;99729.66;;;24.22;43.98
48364;BME280;34170;54.364;18.582;2023-07-22T10:34:21;99723.13;;;23.65;46.57
48364;BME280;34170;54.364;18.582;2023-07-22T10:36:50;99740.47;;;22.54;52.07
48364;BME280;34170;54.364;18.582;2023-07-22T10:39:25;99739.28;;;22.50;53.96
48364;BME280;34170;54.364;18.582;2023-07-22T10:42:02;99741.56;;;22.11;54.74
48364;BME280;34170;54.364;18.582;2023-07-22T10:44:38;99739.06;;;22.09;54.24
48364;BME280;34170;54.364;18.582;2023-07-22T10:47:07;99743.78;;;22.56;53.15
48364;BME280;34170;54.364;18.582;2023-07-22T10:49:47;99752.84;;;22.92;52.69
48364;BME280;34170;54.364;18.582;2023-07-22T10:52:15;99740.44;;;23.25;50.61
48364;BME280;34170;54.364;18.582;2023-07-22T10:55:02;99744.00;;;23.66;48.42
48364;BME280;34170;54.364;18.582;2023-07-22T10:57:30;99749.66;;;24.51;47.94
48364;BME280;34170;54.364;18.582;2023-07-22T10:59:57;99746.72;;;24.91;44.26
48364;BME280;34170;54.364;18.582;2023-07-22T11:02:26;99765.28;;;26.12;42.55
48364;BME280;34170;54.364;18.582;2023-07-22T11:05:02;99756.94;;;26.66;40.88
48364;BME280;34170;54.364;18.582;2023-07-22T11:07:34;99745.44;;;25.38;43.41
48364;BME280;34170;54.364;18.582;2023-07-22T11:10:17;99756.47;;;24.82;43.82
48364;BME280;34170;54.364;18.582;2023-07-22T11:12:46;99759.44;;;25.59;42.49
48364;BME280;34170;54.364;18.582;2023-07-22T11:15:16;99762.50;;;26.71;39.88
48364;BME280;34170;54.364;18.582;2023-07-22T11:17:44;99766.47;;;26.21;41.03
48364;BME280;34170;54.364;18.582;2023-07-22T11:20:12;99758.91;;;26.38;40.68
48364;BME280;34170;54.364;18.582;2023-07-22T11:22:40;99756.94;;;26.34;41.38
48364;BME280;34170;54.364;18.582;2023-07-22T11:25:08;99754.47;;;25.34;42.78
48364;BME280;34170;54.364;18.582;2023-07-22T11:27:36;99760.28;;;24.98;43.86
48364;BME280;34170;54.364;18.582;2023-07-22T11:30:04;99762.22;;;24.47;44.84
48364;BME280;34170;54.364;18.582;2023-07-22T11:32:32;99761.00;;;23.51;46.78
48364;BME280;34170;54.364;18.582;2023-07-22T11:35:00;99754.91;;;22.73;49.65
48364;BME280;34170;54.364;18.582;2023-07-22T11:37:28;99767.28;;;21.80;51.24
48364;BME280;34170;54.364;18.582;2023-07-22T11:40:00;99767.69;;;21.65;52.47
48364;BME280;34170;54.364;18.582;2023-07-22T11:42:28;99758.44;;;22.50;50.28
48364;BME280;34170;54.364;18.582;2023-07-22T11:44:57;99762.75;;;23.29;49.00
48364;BME280;34170;54.364;18.582;2023-07-22T11:47:30;99759.50;;;23.72;46.01
48364;BME280;34170;54.364;18.582;2023-07-22T11:50:01;99747.66;;;23.84;47.22
48364;BME280;34170;54.364;18.582;2023-07-22T11:52:29;99753.94;;;23.55;47.40
48364;BME280;34170;54.364;18.582;2023-07-22T11:55:01;99744.25;;;23.00;49.86
48364;BME280;34170;54.364;18.582;2023-07-22T11:57:30;99759.78;;;23.07;49.31
48364;BME280;34170;54.364;18.582;2023-07-22T11:59:58;99750.25;;;23.78;48.90
48364;BME280;34170;54.364;18.582;2023-07-22T12:02:27;99749.94;;;24.04;47.54
48364;BME280;34170;54.364;18.582;2023-07-22T12:05:02;99744.06;;;24.46;47.39
48364;BME280;34170;54.364;18.582;2023-07-22T12:07:34;99746.84;;;24.00;46.38
48364;BME280;34170;54.364;18.582;2023-07-22T12:10:04;99746.97;;;23.36;48.78
48364;BME280;34170;54.364;18.582;2023-07-22T12:12:36;99751.72;;;23.69;48.36
48364;BME280;34170;54.364;18.582;2023-07-22T12:15:08;99744.06;;;23.83;46.31
48364;BME280;34170;54.364;18.582;2023-07-22T12:17:58;99747.41;;;23.85;43.31
48364;BME280;34170;54.364;18.582;2023-07-22T12:20:30;99752.78;;;23.80;44.02
48364;BME280;34170;54.364;18.582;2023-07-22T12:22:59;99766.97;;;23.89;44.84
48364;BME280;34170;54.364;18.582;2023-07-22T12:25:27;99774.53;;;22.70;46.35
48364;BME280;34170;54.364;18.582;2023-07-22T12:27:54;99791.16;;;21.73;48.22
48364;BME280;34170;54.364;18.582;2023-07-22T12:30:22;99805.31;;;20.89;56.27
48364;BME280;34170;54.364;18.582;2023-07-22T12:32:51;99820.13;;;19.72;63.55
48364;BME280;34170;54.364;18.582;2023-07-22T12:35:19;99822.72;;;19.60;70.29
48364;BME280;34170;54.364;18.582;2023-07-22T12:37:46;99822.47;;;19.75;71.49
48364;BME280;34170;54.364;18.582;2023-07-22T12:40:14;99820.22;;;20.04;70.61
48364;BME280;34170;54.364;18.582;2023-07-22T12:42:41;99825.28;;;20.32;70.88
48364;BME280;34170;54.364;18.582;2023-07-22T12:45:09;99822.09;;;20.92;68.35
48364;BME280;34170;54.364;18.582;2023-07-22T12:47:36;99816.88;;;20.91;68.52
48364;BME280;34170;54.364;18.582;2023-07-22T12:50:05;99816.38;;;21.19;66.61
48364;BME280;34170;54.364;18.582;2023-07-22T12:52:36;99815.25;;;21.27;64.60
48364;BME280;34170;54.364;18.582;2023-07-22T12:55:04;99808.28;;;21.68;64.05
48364;BME280;34170;54.364;18.582;2023-07-22T12:57:31;99799.31;;;21.61;63.57